sensor_id;sensor_type;location;lat;lon;timestamp;P1;P2;P0
26185;PMS7003;20067;48.764;9.176;2023-02-23T00:01:35;37.00;33.25;17.50
26185;PMS7003;20067;48.764;9.176;2023-02-23T00:04:01;32.25;28.75;18.00
26185;PMS7003;20067;48.764;9.176;2023-02-23T00:06:28;35.75;31.75;18.00
26185;PMS7003;20067;48.764;9.176;2023-02-23T00:08:55;38.50;31.25;17.75
26185;PMS7003;20067;48.764;9.176;2023-02-23T00:11:22;37.00;32.50;18.25
26185;PMS7003;20067;48.764;9.176;2023-02-23T00:13:49;32.75;27.75;18.00
26185;PMS7003;20067;48.764;9.176;2023-02-23T00:16:16;35.50;32.00;20.50
26185;PMS7003;20067;48.764;9.176;2023-02-23T00:18:47;32.50;29.50;20.00
26185;PMS7003;20067;48.764;9.176;2023-02-23T00:24:00;33.25;28.25;16.50
26185;PMS7003;20067;48.764;9.176;2023-02-23T00:26:28;32.00;27.50;17.00
26185;PMS7003;20067;48.764;9.176;2023-02-23T00:28:58;34.50;27.50;17.00
26185;PMS7003;20067;48.764;9.176;2023-02-23T00:31:24;29.50;28.25;16.00
26185;PMS7003;20067;48.764;9.176;2023-02-23T00:33:51;29.00;25.75;15.75
26185;PMS7003;20067;48.764;9.176;2023-02-23T00:36:19;30.75;27.25;17.50
26185;PMS7003;20067;48.764;9.176;2023-02-23T00:38:46;30.25;28.50;18.00
26185;PMS7003;20067;48.764;9.176;2023-02-23T00:41:13;39.00;33.50;18.00
26185;PMS7003;20067;48.764;9.176;2023-02-23T00:43:48;36.50;24.25;17.00
26185;PMS7003;20067;48.764;9.176;2023-02-23T00:46:17;30.25;27.25;17.75
26185;PMS7003;20067;48.764;9.176;2023-02-23T00:48:45;27.75;26.25;15.75
26185;PMS7003;20067;48.764;9.176;2023-02-23T00:51:12;36.25;32.25;19.75
26185;PMS7003;20067;48.764;9.176;2023-02-23T00:53:39;31.25;27.00;17.25
26185;PMS7003;20067;48.764;9.176;2023-02-23T00:56:08;39.50;31.25;21.50
26185;PMS7003;20067;48.764;9.176;2023-02-23T00:58:35;30.25;29.25;19.25
26185;PMS7003;20067;48.764;9.176;2023-02-23T01:01:04;31.25;28.25;18.00
26185;PMS7003;20067;48.764;9.176;2023-02-23T01:03:30;39.25;29.75;18.50
26185;PMS7003;20067;48.764;9.176;2023-02-23T01:05:59;32.00;28.75;18.25
26185;PMS7003;20067;48.764;9.176;2023-02-23T01:08:29;43.50;30.00;18.00
26185;PMS7003;20067;48.764;9.176;2023-02-23T01:10:56;33.75;29.75;17.00
26185;PMS7003;20067;48.764;9.176;2023-02-23T01:13:22;34.50;30.25;17.50
26185;PMS7003;20067;48.764;9.176;2023-02-23T01:15:49;36.25;33.25;21.00
26185;PMS7003;20067;48.764;9.176;2023-02-23T01:18:16;39.00;29.75;18.75
26185;PMS7003;20067;48.764;9.176;2023-02-23T01:20:43;35.50;28.00;18.25
26185;PMS7003;20067;48.764;9.176;2023-02-23T01:23:10;29.25;27.50;18.00
26185;PMS7003;20067;48.764;9.176;2023-02-23T01:25:39;32.00;30.75;18.00
26185;PMS7003;20067;48.764;9.176;2023-02-23T01:28:06;30.25;29.00;19.00
26185;PMS7003;20067;48.764;9.176;2023-02-23T01:30:33;36.25;31.25;20.00
26185;PMS7003;20067;48.764;9.176;2023-02-23T01:32:59;35.00;29.75;18.00
26185;PMS7003;20067;48.764;9.176;2023-02-23T01:35:26;33.75;27.75;18.50
26185;PMS7003;20067;48.764;9.176;2023-02-23T01:37:53;43.00;37.25;21.50
26185;PMS7003;20067;48.764;9.176;2023-02-23T01:40:19;36.25;30.75;17.25
26185;PMS7003;20067;48.764;9.176;2023-02-23T01:42:53;36.00;32.00;17.50
26185;PMS7003;20067;48.764;9.176;2023-02-23T01:48:00;35.00;30.25;16.00
26185;PMS7003;20067;48.764;9.176;2023-02-23T01:50:38;34.50;31.00;19.50
26185;PMS7003;20067;48.764;9.176;2023-02-23T01:53:07;43.75;34.00;21.25
26185;PMS7003;20067;48.764;9.176;2023-02-23T01:55:32;38.50;32.25;21.25
26185;PMS7003;20067;48.764;9.176;2023-02-23T01:58:06;33.00;31.00;18.50
26185;PMS7003;20067;48.764;9.176;2023-02-23T02:00:40;41.50;33.50;19.25
26185;PMS7003;20067;48.764;9.176;2023-02-23T02:03:09;35.25;28.75;18.00
26185;PMS7003;20067;48.764;9.176;2023-02-23T02:05:46;36.75;34.00;18.00
26185;PMS7003;20067;48.764;9.176;2023-02-23T02:08:14;42.00;32.75;19.50
26185;PMS7003;20067;48.764;9.176;2023-02-23T02:10:40;34.00;30.00;18.75
26185;PMS7003;20067;48.764;9.176;2023-02-23T02:13:12;38.50;31.00;20.00
26185;PMS7003;20067;48.764;9.176;2023-02-23T02:15:58;35.25;29.75;20.75
26185;PMS7003;20067;48.764;9.176;2023-02-23T02:19:08;34.50;32.25;20.25
26185;PMS7003;20067;48.764;9.176;2023-02-23T02:22:05;34.00;29.75;17.25
26185;PMS7003;20067;48.764;9.176;2023-02-23T02:33:23;39.25;34.25;21.00
26185;PMS7003;20067;48.764;9.176;2023-02-23T02:44:17;41.00;31.50;20.25
26185;PMS7003;20067;48.764;9.176;2023-02-23T02:46:56;36.00;32.25;20.75
26185;PMS7003;20067;48.764;9.176;2023-02-23T02:49:30;40.25;35.50;21.00
26185;PMS7003;20067;48.764;9.176;2023-02-23T02:54:45;35.25;30.75;20.50
26185;PMS7003;20067;48.764;9.176;2023-02-23T02:57:17;40.50;36.00;21.00
26185;PMS7003;20067;48.764;9.176;2023-02-23T02:59:47;39.75;35.00;20.75
26185;PMS7003;20067;48.764;9.176;2023-02-23T03:02:33;38.25;35.50;21.00
26185;PMS7003;20067;48.764;9.176;2023-02-23T03:05:28;38.00;33.00;20.50
26185;PMS7003;20067;48.764;9.176;2023-02-23T03:08:20;40.00;34.75;21.00
26185;PMS7003;20067;48.764;9.176;2023-02-23T03:11:35;35.75;30.50;18.25
26185;PMS7003;20067;48.764;9.176;2023-02-23T03:14:38;37.25;32.00;20.25
26185;PMS7003;20067;48.764;9.176;2023-02-23T03:17:48;32.25;30.25;18.00
26185;PMS7003;20067;48.764;9.176;2023-02-23T03:20:49;34.00;27.25;17.25
26185;PMS7003;20067;48.764;9.176;2023-02-23T03:23:41;37.50;34.00;21.50
26185;PMS7003;20067;48.764;9.176;2023-02-23T03:26:57;37.25;33.25;22.75
26185;PMS7003;20067;48.764;9.176;2023-02-23T03:30:01;38.50;34.75;21.75
26185;PMS7003;20067;48.764;9.176;2023-02-23T03:33:29;37.50;33.75;19.75
26185;PMS7003;20067;48.764;9.176;2023-02-23T03:36:40;32.50;28.00;17.50
26185;PMS7003;20067;48.764;9.176;2023-02-23T03:39:36;42.00;35.00;16.25
26185;PMS7003;20067;48.764;9.176;2023-02-23T03:42:31;35.00;30.75;18.00
26185;PMS7003;20067;48.764;9.176;2023-02-23T03:45:20;31.25;29.00;15.00
26185;PMS7003;20067;48.764;9.176;2023-02-23T03:48:08;29.50;27.00;17.25
26185;PMS7003;20067;48.764;9.176;2023-02-23T03:50:55;29.50;28.75;15.00
26185;PMS7003;20067;48.764;9.176;2023-02-23T03:56:38;29.50;23.75;14.75
26185;PMS7003;20067;48.764;9.176;2023-02-23T03:59:26;36.25;29.50;17.25
26185;PMS7003;20067;48.764;9.176;2023-02-23T04:02:15;40.75;34.00;18.75
26185;PMS7003;20067;48.764;9.176;2023-02-23T04:05:04;27.00;25.25;16.25
26185;PMS7003;20067;48.764;9.176;2023-02-23T04:07:53;30.25;28.00;15.00
26185;PMS7003;20067;48.764;9.176;2023-02-23T04:10:43;26.00;24.25;15.00
26185;PMS7003;20067;48.764;9.176;2023-02-23T04:13:32;23.50;21.75;12.00
26185;PMS7003;20067;48.764;9.176;2023-02-23T04:18:32;24.50;22.50;12.75
26185;PMS7003;20067;48.764;9.176;2023-02-23T04:21:00;23.25;21.00;14.00
26185;PMS7003;20067;48.764;9.176;2023-02-23T04:23:27;21.00;18.00;9.50
26185;PMS7003;20067;48.764;9.176;2023-02-23T04:25:53;28.50;25.75;15.00
26185;PMS7003;20067;48.764;9.176;2023-02-23T04:28:20;19.75;16.25;9.00
26185;PMS7003;20067;48.764;9.176;2023-02-23T04:30:47;25.50;22.75;10.00
26185;PMS7003;20067;48.764;9.176;2023-02-23T04:33:12;21.50;18.50;12.00
26185;PMS7003;20067;48.764;9.176;2023-02-23T04:35:38;26.50;21.00;13.50
26185;PMS7003;20067;48.764;9.176;2023-02-23T04:38:04;26.25;24.00;15.50
26185;PMS7003;20067;48.764;9.176;2023-02-23T04:40:30;21.00;20.50;13.00
26185;PMS7003;20067;48.764;9.176;2023-02-23T04:42:56;28.50;26.00;17.25
26185;PMS7003;20067;48.764;9.176;2023-02-23T04:45:22;31.75;26.50;14.25
26185;PMS7003;20067;48.764;9.176;2023-02-23T04:47:48;26.75;21.00;12.75
26185;PMS7003;20067;48.764;9.176;2023-02-23T04:50:15;24.25;24.00;13.50
26185;PMS7003;20067;48.764;9.176;2023-02-23T04:52:41;22.25;19.25;12.00
26185;PMS7003;20067;48.764;9.176;2023-02-23T04:55:07;23.00;22.75;13.00
26185;PMS7003;20067;48.764;9.176;2023-02-23T04:57:36;26.75;24.25;15.00
26185;PMS7003;20067;48.764;9.176;2023-02-23T05:00:03;26.00;22.75;12.50
26185;PMS7003;20067;48.764;9.176;2023-02-23T05:02:29;24.25;22.25;13.00
26185;PMS7003;20067;48.764;9.176;2023-02-23T05:04:55;22.50;21.00;12.75
26185;PMS7003;20067;48.764;9.176;2023-02-23T05:07:21;21.00;21.00;12.25
26185;PMS7003;20067;48.764;9.176;2023-02-23T05:09:47;23.75;18.00;11.00
26185;PMS7003;20067;48.764;9.176;2023-02-23T05:12:13;23.50;21.25;11.75
26185;PMS7003;20067;48.764;9.176;2023-02-23T05:14:38;21.00;19.25;13.00
26185;PMS7003;20067;48.764;9.176;2023-02-23T05:17:04;32.00;25.25;15.75
26185;PMS7003;20067;48.764;9.176;2023-02-23T05:19:30;32.50;24.00;15.00
26185;PMS7003;20067;48.764;9.176;2023-02-23T05:21:57;29.25;25.75;15.75
26185;PMS7003;20067;48.764;9.176;2023-02-23T05:24:23;33.25;31.25;18.25
26185;PMS7003;20067;48.764;9.176;2023-02-23T05:26:49;32.50;31.25;17.75
26185;PMS7003;20067;48.764;9.176;2023-02-23T05:29:15;33.75;28.75;15.25
26185;PMS7003;20067;48.764;9.176;2023-02-23T05:31:41;25.75;23.00;12.00
26185;PMS7003;20067;48.764;9.176;2023-02-23T05:34:07;34.25;28.50;14.75
26185;PMS7003;20067;48.764;9.176;2023-02-23T05:36:32;28.00;24.75;15.00
26185;PMS7003;20067;48.764;9.176;2023-02-23T05:38:58;25.75;23.00;12.00
26185;PMS7003;20067;48.764;9.176;2023-02-23T05:41:24;28.00;23.50;14.00
26185;PMS7003;20067;48.764;9.176;2023-02-23T05:43:50;27.75;23.25;13.00
26185;PMS7003;20067;48.764;9.176;2023-02-23T05:46:18;25.00;21.25;12.00
26185;PMS7003;20067;48.764;9.176;2023-02-23T05:48:46;25.25;22.75;13.00
26185;PMS7003;20067;48.764;9.176;2023-02-23T05:51:12;23.00;20.75;12.00
26185;PMS7003;20067;48.764;9.176;2023-02-23T05:53:39;22.25;21.00;13.00
26185;PMS7003;20067;48.764;9.176;2023-02-23T05:56:06;25.50;24.50;15.00
26185;PMS7003;20067;48.764;9.176;2023-02-23T05:58:34;21.50;21.00;12.00
26185;PMS7003;20067;48.764;9.176;2023-02-23T06:01:00;28.00;22.00;14.50
26185;PMS7003;20067;48.764;9.176;2023-02-23T06:03:26;23.75;19.75;12.75
26185;PMS7003;20067;48.764;9.176;2023-02-23T06:05:52;22.00;19.00;10.75
26185;PMS7003;20067;48.764;9.176;2023-02-23T06:08:19;25.00;22.75;12.25
26185;PMS7003;20067;48.764;9.176;2023-02-23T06:10:45;21.50;19.00;12.00
26185;PMS7003;20067;48.764;9.176;2023-02-23T06:13:11;24.25;21.50;12.25
26185;PMS7003;20067;48.764;9.176;2023-02-23T06:15:37;18.50;17.00;10.00
26185;PMS7003;20067;48.764;9.176;2023-02-23T06:18:03;21.25;20.25;12.00
26185;PMS7003;20067;48.764;9.176;2023-02-23T06:20:29;21.00;20.75;12.00
26185;PMS7003;20067;48.764;9.176;2023-02-23T06:22:55;25.00;22.00;14.75
26185;PMS7003;20067;48.764;9.176;2023-02-23T06:25:21;27.25;23.25;14.25
26185;PMS7003;20067;48.764;9.176;2023-02-23T06:27:48;27.25;23.75;15.00
26185;PMS7003;20067;48.764;9.176;2023-02-23T06:30:13;26.25;22.00;13.00
26185;PMS7003;20067;48.764;9.176;2023-02-23T06:32:39;28.00;23.75;13.75
26185;PMS7003;20067;48.764;9.176;2023-02-23T06:35:05;24.75;21.25;11.25
26185;PMS7003;20067;48.764;9.176;2023-02-23T06:37:32;25.25;21.00;12.00
26185;PMS7003;20067;48.764;9.176;2023-02-23T06:40:00;27.50;21.50;14.75
26185;PMS7003;20067;48.764;9.176;2023-02-23T06:42:26;27.50;24.50;14.00
26185;PMS7003;20067;48.764;9.176;2023-02-23T06:44:52;23.25;21.25;11.25
26185;PMS7003;20067;48.764;9.176;2023-02-23T06:47:18;20.75;19.00;11.25
26185;PMS7003;20067;48.764;9.176;2023-02-23T06:49:43;18.00;18.00;10.50
26185;PMS7003;20067;48.764;9.176;2023-02-23T06:52:09;21.25;20.50;12.00
26185;PMS7003;20067;48.764;9.176;2023-02-23T06:54:37;24.25;18.50;10.25
26185;PMS7003;20067;48.764;9.176;2023-02-23T06:57:04;23.00;21.00;13.00
26185;PMS7003;20067;48.764;9.176;2023-02-23T06:59:30;28.25;21.00;13.00
26185;PMS7003;20067;48.764;9.176;2023-02-23T07:01:56;21.50;20.75;12.25
26185;PMS7003;20067;48.764;9.176;2023-02-23T07:04:21;23.75;22.50;12.25
26185;PMS7003;20067;48.764;9.176;2023-02-23T07:06:47;22.00;20.75;12.00
26185;PMS7003;20067;48.764;9.176;2023-02-23T07:09:13;19.50;18.75;13.00
26185;PMS7003;20067;48.764;9.176;2023-02-23T07:11:41;29.50;25.50;12.75
26185;PMS7003;20067;48.764;9.176;2023-02-23T07:14:09;25.00;24.75;15.50
26185;PMS7003;20067;48.764;9.176;2023-02-23T07:16:35;27.75;22.75;13.75
26185;PMS7003;20067;48.764;9.176;2023-02-23T07:19:02;31.25;27.00;15.50
26185;PMS7003;20067;48.764;9.176;2023-02-23T07:21:29;22.75;21.75;13.00
26185;PMS7003;20067;48.764;9.176;2023-02-23T07:23:58;26.75;24.25;13.00
26185;PMS7003;20067;48.764;9.176;2023-02-23T07:26:24;32.00;27.75;15.25
26185;PMS7003;20067;48.764;9.176;2023-02-23T07:28:50;24.50;22.00;15.00
26185;PMS7003;20067;48.764;9.176;2023-02-23T07:31:16;25.50;22.00;13.25
26185;PMS7003;20067;48.764;9.176;2023-02-23T07:33:41;27.25;24.25;15.00
26185;PMS7003;20067;48.764;9.176;2023-02-23T07:36:07;28.50;24.75;14.75
26185;PMS7003;20067;48.764;9.176;2023-02-23T07:38:34;27.50;24.00;14.00
26185;PMS7003;20067;48.764;9.176;2023-02-23T07:41:01;24.25;23.00;13.00
26185;PMS7003;20067;48.764;9.176;2023-02-23T07:43:27;23.50;20.50;12.75
26185;PMS7003;20067;48.764;9.176;2023-02-23T07:45:53;22.25;20.50;13.25
26185;PMS7003;20067;48.764;9.176;2023-02-23T07:48:23;27.00;23.00;12.00
26185;PMS7003;20067;48.764;9.176;2023-02-23T07:50:48;27.00;23.00;15.00
26185;PMS7003;20067;48.764;9.176;2023-02-23T07:53:14;25.25;23.25;13.50
26185;PMS7003;20067;48.764;9.176;2023-02-23T07:55:40;21.75;20.75;12.25
26185;PMS7003;20067;48.764;9.176;2023-02-23T07:58:06;22.00;21.75;13.00
26185;PMS7003;20067;48.764;9.176;2023-02-23T08:00:32;26.25;23.75;14.75
26185;PMS7003;20067;48.764;9.176;2023-02-23T08:02:58;23.25;22.00;13.50
26185;PMS7003;20067;48.764;9.176;2023-02-23T08:05:25;20.00;18.50;11.25
26185;PMS7003;20067;48.764;9.176;2023-02-23T08:07:52;22.75;19.75;12.25
26185;PMS7003;20067;48.764;9.176;2023-02-23T08:10:18;26.00;19.75;13.00
26185;PMS7003;20067;48.764;9.176;2023-02-23T08:12:44;19.25;19.25;11.00
26185;PMS7003;20067;48.764;9.176;2023-02-23T08:15:09;21.00;19.50;11.75
26185;PMS7003;20067;48.764;9.176;2023-02-23T08:17:36;25.25;20.00;11.00
26185;PMS7003;20067;48.764;9.176;2023-02-23T08:20:02;22.00;18.75;12.00
26185;PMS7003;20067;48.764;9.176;2023-02-23T08:22:29;21.00;21.00;13.00
26185;PMS7003;20067;48.764;9.176;2023-02-23T08:24:55;26.25;22.00;10.00
26185;PMS7003;20067;48.764;9.176;2023-02-23T08:27:20;22.25;19.75;11.75
26185;PMS7003;20067;48.764;9.176;2023-02-23T08:29:46;23.25;21.50;12.25
26185;PMS7003;20067;48.764;9.176;2023-02-23T08:32:12;25.00;23.75;13.25
26185;PMS7003;20067;48.764;9.176;2023-02-23T08:34:41;23.50;21.75;12.50
26185;PMS7003;20067;48.764;9.176;2023-02-23T08:37:08;27.25;21.25;12.75
26185;PMS7003;20067;48.764;9.176;2023-02-23T08:39:34;29.25;22.00;13.00
26185;PMS7003;20067;48.764;9.176;2023-02-23T08:42:00;20.50;16.75;11.00
26185;PMS7003;20067;48.764;9.176;2023-02-23T08:44:26;25.50;22.50;11.00
26185;PMS7003;20067;48.764;9.176;2023-02-23T08:46:52;25.00;24.25;10.00
26185;PMS7003;20067;48.764;9.176;2023-02-23T08:49:19;22.50;22.25;12.50
26185;PMS7003;20067;48.764;9.176;2023-02-23T08:51:45;18.50;18.50;10.00
26185;PMS7003;20067;48.764;9.176;2023-02-23T08:54:11;16.25;15.00;9.25
26185;PMS7003;20067;48.764;9.176;2023-02-23T08:56:39;23.00;21.00;8.00
26185;PMS7003;20067;48.764;9.176;2023-02-23T08:59:06;11.00;10.25;5.00
26185;PMS7003;20067;48.764;9.176;2023-02-23T09:01:32;23.25;16.50;8.50
26185;PMS7003;20067;48.764;9.176;2023-02-23T09:03:58;18.25;14.00;7.50
26185;PMS7003;20067;48.764;9.176;2023-02-23T09:06:24;17.00;15.75;8.00
26185;PMS7003;20067;48.764;9.176;2023-02-23T09:08:51;19.75;15.75;9.50
26185;PMS7003;20067;48.764;9.176;2023-02-23T09:11:19;17.75;16.00;8.00
26185;PMS7003;20067;48.764;9.176;2023-02-23T09:13:45;17.00;17.00;10.00
26185;PMS7003;20067;48.764;9.176;2023-02-23T09:16:11;17.50;14.00;7.00
26185;PMS7003;20067;48.764;9.176;2023-02-23T09:18:36;15.75;14.00;7.75
26185;PMS7003;20067;48.764;9.176;2023-02-23T09:21:03;17.00;14.00;7.25
26185;PMS7003;20067;48.764;9.176;2023-02-23T09:23:32;18.75;17.00;10.00
26185;PMS7003;20067;48.764;9.176;2023-02-23T09:26:02;21.00;17.00;8.00
26185;PMS7003;20067;48.764;9.176;2023-02-23T09:28:32;21.75;18.50;8.25
26185;PMS7003;20067;48.764;9.176;2023-02-23T09:31:05;17.00;17.00;9.00
26185;PMS7003;20067;48.764;9.176;2023-02-23T09:33:32;21.00;15.50;9.00
26185;PMS7003;20067;48.764;9.176;2023-02-23T09:35:58;18.50;17.50;7.75
26185;PMS7003;20067;48.764;9.176;2023-02-23T09:38:23;17.50;15.00;7.00
26185;PMS7003;20067;48.764;9.176;2023-02-23T09:40:50;17.25;16.25;8.00
26185;PMS7003;20067;48.764;9.176;2023-02-23T09:46:12;15.50;13.00;7.00
26185;PMS7003;20067;48.764;9.176;2023-02-23T09:48:45;21.50;18.00;11.00
26185;PMS7003;20067;48.764;9.176;2023-02-23T09:51:14;12.00;11.75;7.00
26185;PMS7003;20067;48.764;9.176;2023-02-23T09:53:52;14.25;14.25;7.25
26185;PMS7003;20067;48.764;9.176;2023-02-23T09:56:26;19.00;19.00;13.00
26185;PMS7003;20067;48.764;9.176;2023-02-23T09:58:57;14.00;13.75;8.00
26185;PMS7003;20067;48.764;9.176;2023-02-23T10:01:35;14.00;12.00;7.00
26185;PMS7003;20067;48.764;9.176;2023-02-23T10:04:32;11.75;11.75;6.00
26185;PMS7003;20067;48.764;9.176;2023-02-23T10:15:26;12.75;11.50;5.00
26185;PMS7003;20067;48.764;9.176;2023-02-23T10:18:16;13.50;13.50;6.00
26185;PMS7003;20067;48.764;9.176;2023-02-23T10:21:04;10.75;10.50;5.00
26185;PMS7003;20067;48.764;9.176;2023-02-23T10:23:45;10.25;10.25;5.00
26185;PMS7003;20067;48.764;9.176;2023-02-23T10:26:17;12.75;12.25;6.00
26185;PMS7003;20067;48.764;9.176;2023-02-23T10:28:46;14.00;13.25;7.25
26185;PMS7003;20067;48.764;9.176;2023-02-23T10:33:47;13.25;12.75;7.00
26185;PMS7003;20067;48.764;9.176;2023-02-23T10:36:18;12.50;10.75;6.50
26185;PMS7003;20067;48.764;9.176;2023-02-23T10:38:54;12.25;12.25;6.00
26185;PMS7003;20067;48.764;9.176;2023-02-23T10:41:20;10.25;10.25;6.00
26185;PMS7003;20067;48.764;9.176;2023-02-23T10:43:46;14.25;11.00;6.00
26185;PMS7003;20067;48.764;9.176;2023-02-23T10:46:21;9.50;9.00;5.00
26185;PMS7003;20067;48.764;9.176;2023-02-23T10:48:55;9.00;6.50;2.50
26185;PMS7003;20067;48.764;9.176;2023-02-23T10:51:24;9.25;9.00;4.00
26185;PMS7003;20067;48.764;9.176;2023-02-23T10:53:56;11.00;11.00;4.50
26185;PMS7003;20067;48.764;9.176;2023-02-23T10:56:22;8.00;8.00;4.00
26185;PMS7003;20067;48.764;9.176;2023-02-23T10:58:54;10.75;7.50;2.00
26185;PMS7003;20067;48.764;9.176;2023-02-23T11:01:41;12.00;12.00;5.00
26185;PMS7003;20067;48.764;9.176;2023-02-23T11:04:20;11.00;11.00;4.50
26185;PMS7003;20067;48.764;9.176;2023-02-23T11:06:49;13.75;10.00;4.00
26185;PMS7003;20067;48.764;9.176;2023-02-23T11:09:24;11.00;8.25;2.00
26185;PMS7003;20067;48.764;9.176;2023-02-23T11:11:56;8.50;8.50;2.50
26185;PMS7003;20067;48.764;9.176;2023-02-23T11:14:48;8.00;7.75;4.00
26185;PMS7003;20067;48.764;9.176;2023-02-23T11:17:36;8.75;8.25;4.00
26185;PMS7003;20067;48.764;9.176;2023-02-23T11:23:23;16.00;15.75;9.00
26185;PMS7003;20067;48.764;9.176;2023-02-23T11:25:57;24.00;22.75;12.00
26185;PMS7003;20067;48.764;9.176;2023-02-23T11:28:35;26.50;22.75;13.50
26185;PMS7003;20067;48.764;9.176;2023-02-23T11:31:16;23.75;20.25;13.00
26185;PMS7003;20067;48.764;9.176;2023-02-23T11:33:45;23.00;19.75;10.75
26185;PMS7003;20067;48.764;9.176;2023-02-23T11:36:17;29.00;24.75;16.75
26185;PMS7003;20067;48.764;9.176;2023-02-23T11:38:45;26.00;22.25;13.50
26185;PMS7003;20067;48.764;9.176;2023-02-23T11:41:19;26.50;24.50;14.00
26185;PMS7003;20067;48.764;9.176;2023-02-23T11:43:48;22.00;21.00;12.25
26185;PMS7003;20067;48.764;9.176;2023-02-23T11:46:15;25.25;23.75;13.25
26185;PMS7003;20067;48.764;9.176;2023-02-23T11:48:47;30.75;25.75;14.00
26185;PMS7003;20067;48.764;9.176;2023-02-23T11:51:30;31.75;26.75;14.00
26185;PMS7003;20067;48.764;9.176;2023-02-23T11:53:57;26.75;21.25;12.75
26185;PMS7003;20067;48.764;9.176;2023-02-23T11:56:24;23.75;22.50;13.00
26185;PMS7003;20067;48.764;9.176;2023-02-23T11:58:54;20.00;19.75;12.00
26185;PMS7003;20067;48.764;9.176;2023-02-23T12:01:34;25.00;23.00;13.75
26185;PMS7003;20067;48.764;9.176;2023-02-23T12:04:05;19.25;18.50;9.00
26185;PMS7003;20067;48.764;9.176;2023-02-23T12:06:47;21.50;18.00;9.00
26185;PMS7003;20067;48.764;9.176;2023-02-23T12:11:51;24.50;19.25;12.00
26185;PMS7003;20067;48.764;9.176;2023-02-23T12:14:32;20.00;19.75;12.25
26185;PMS7003;20067;48.764;9.176;2023-02-23T12:17:10;19.50;18.75;10.00
26185;PMS7003;20067;48.764;9.176;2023-02-23T12:19:42;20.00;16.50;9.75
26185;PMS7003;20067;48.764;9.176;2023-02-23T12:22:14;24.00;20.25;12.00
26185;PMS7003;20067;48.764;9.176;2023-02-23T12:24:48;20.75;17.50;10.00
26185;PMS7003;20067;48.764;9.176;2023-02-23T12:27:25;19.00;18.50;10.25
26185;PMS7003;20067;48.764;9.176;2023-02-23T12:32:54;20.00;17.75;9.50
26185;PMS7003;20067;48.764;9.176;2023-02-23T12:35:29;19.25;18.50;11.00
26185;PMS7003;20067;48.764;9.176;2023-02-23T12:41:25;22.75;18.00;8.00
26185;PMS7003;20067;48.764;9.176;2023-02-23T12:44:02;20.50;17.25;10.25
26185;PMS7003;20067;48.764;9.176;2023-02-23T12:46:53;18.75;18.00;11.00
26185;PMS7003;20067;48.764;9.176;2023-02-23T12:49:29;26.25;21.25;11.00
26185;PMS7003;20067;48.764;9.176;2023-02-23T12:52:03;19.25;17.25;8.50
26185;PMS7003;20067;48.764;9.176;2023-02-23T12:54:42;17.00;14.50;7.00
26185;PMS7003;20067;48.764;9.176;2023-02-23T12:57:32;15.75;14.25;5.50
26185;PMS7003;20067;48.764;9.176;2023-02-23T13:03:14;17.50;17.00;8.00
26185;PMS7003;20067;48.764;9.176;2023-02-23T13:11:15;18.25;15.75;7.50
26185;PMS7003;20067;48.764;9.176;2023-02-23T13:16:52;17.75;15.25;8.00
26185;PMS7003;20067;48.764;9.176;2023-02-23T13:20:02;19.50;16.25;7.00
26185;PMS7003;20067;48.764;9.176;2023-02-23T13:25:02;18.00;14.33;5.00
26185;PMS7003;20067;48.764;9.176;2023-02-23T13:27:45;14.00;13.25;6.50
26185;PMS7003;20067;48.764;9.176;2023-02-23T13:30:15;18.75;17.00;7.00
26185;PMS7003;20067;48.764;9.176;2023-02-23T13:32:44;17.00;14.50;7.00
26185;PMS7003;20067;48.764;9.176;2023-02-23T13:35:14;14.00;13.00;6.50
26185;PMS7003;20067;48.764;9.176;2023-02-23T13:37:45;15.75;14.50;7.25
26185;PMS7003;20067;48.764;9.176;2023-02-23T13:51:38;22.25;17.50;10.00
26185;PMS7003;20067;48.764;9.176;2023-02-23T13:56:47;21.50;19.00;10.25
26185;PMS7003;20067;48.764;9.176;2023-02-23T13:59:23;19.50;16.75;10.00
26185;PMS7003;20067;48.764;9.176;2023-02-23T14:01:53;15.00;14.75;8.00
26185;PMS7003;20067;48.764;9.176;2023-02-23T14:07:12;19.75;18.00;10.00
26185;PMS7003;20067;48.764;9.176;2023-02-23T14:09:48;23.50;20.50;10.75
26185;PMS7003;20067;48.764;9.176;2023-02-23T14:12:24;20.75;19.00;11.00
26185;PMS7003;20067;48.764;9.176;2023-02-23T14:17:55;22.00;17.50;8.00
26185;PMS7003;20067;48.764;9.176;2023-02-23T14:41:25;14.50;14.50;8.00
26185;PMS7003;20067;48.764;9.176;2023-02-23T14:44:35;12.75;11.50;5.50
26185;PMS7003;20067;48.764;9.176;2023-02-23T14:47:07;11.50;11.50;6.50
26185;PMS7003;20067;48.764;9.176;2023-02-23T14:49:40;11.50;11.00;5.00
26185;PMS7003;20067;48.764;9.176;2023-02-23T14:52:22;14.00;12.00;7.00
26185;PMS7003;20067;48.764;9.176;2023-02-23T14:54:50;12.25;12.25;4.75
26185;PMS7003;20067;48.764;9.176;2023-02-23T14:57:28;11.50;11.00;4.00
26185;PMS7003;20067;48.764;9.176;2023-02-23T14:59:58;11.00;9.50;2.50
26185;PMS7003;20067;48.764;9.176;2023-02-23T15:02:26;11.00;9.25;3.00
26185;PMS7003;20067;48.764;9.176;2023-02-23T15:04:53;13.25;10.50;4.00
26185;PMS7003;20067;48.764;9.176;2023-02-23T15:10:08;10.75;8.00;4.00
26185;PMS7003;20067;48.764;9.176;2023-02-23T15:12:41;9.00;9.00;4.25
26185;PMS7003;20067;48.764;9.176;2023-02-23T15:15:11;12.50;9.25;4.00
26185;PMS7003;20067;48.764;9.176;2023-02-23T15:17:45;13.75;9.00;4.00
26185;PMS7003;20067;48.764;9.176;2023-02-23T15:20:16;11.00;8.75;4.00
26185;PMS7003;20067;48.764;9.176;2023-02-23T15:22:49;13.75;10.75;5.00
26185;PMS7003;20067;48.764;9.176;2023-02-23T15:25:20;11.75;11.00;5.00
26185;PMS7003;20067;48.764;9.176;2023-02-23T15:27:48;14.00;11.00;4.25
26185;PMS7003;20067;48.764;9.176;2023-02-23T15:30:29;15.00;11.75;5.00
26185;PMS7003;20067;48.764;9.176;2023-02-23T15:33:00;14.00;11.25;5.00
26185;PMS7003;20067;48.764;9.176;2023-02-23T15:35:40;14.25;10.25;4.25
26185;PMS7003;20067;48.764;9.176;2023-02-23T15:38:31;10.75;10.75;4.25
26185;PMS7003;20067;48.764;9.176;2023-02-23T15:41:01;15.75;13.25;7.50
26185;PMS7003;20067;48.764;9.176;2023-02-23T15:43:29;14.50;12.75;7.00
26185;PMS7003;20067;48.764;9.176;2023-02-23T15:46:00;13.75;12.75;7.00
26185;PMS7003;20067;48.764;9.176;2023-02-23T15:48:43;12.00;11.00;5.00
26185;PMS7003;20067;48.764;9.176;2023-02-23T15:53:57;17.00;15.00;8.00
26185;PMS7003;20067;48.764;9.176;2023-02-23T15:56:27;15.25;12.00;7.00
26185;PMS7003;20067;48.764;9.176;2023-02-23T15:59:01;16.00;14.25;7.00
26185;PMS7003;20067;48.764;9.176;2023-02-23T16:01:32;17.50;14.00;7.00
26185;PMS7003;20067;48.764;9.176;2023-02-23T16:06:37;15.50;14.25;7.00
26185;PMS7003;20067;48.764;9.176;2023-02-23T16:14:34;17.75;15.25;7.00
26185;PMS7003;20067;48.764;9.176;2023-02-23T16:19:43;16.50;16.25;8.00
26185;PMS7003;20067;48.764;9.176;2023-02-23T16:22:13;15.50;15.50;8.00
26185;PMS7003;20067;48.764;9.176;2023-02-23T16:24:57;19.25;15.25;10.00
26185;PMS7003;20067;48.764;9.176;2023-02-23T16:27:27;15.75;13.50;7.50